createdAt,value
2018-08-10T00:00:58.230Z,21.61
2018-08-10T00:01:58.225Z,21.59
2018-08-10T00:02:58.230Z,21.54
2018-08-10T00:03:58.224Z,21.58
2018-08-10T00:04:58.220Z,21.53
2018-08-10T00:05:57.713Z,21.46
2018-08-10T00:06:57.967Z,21.56
2018-08-10T00:07:58.212Z,21.5
2018-08-10T00:08:58.403Z,21.56
2018-08-10T00:09:58.212Z,21.46
2018-08-10T00:10:57.956Z,21.52
2018-08-10T00:11:58.210Z,21.49
2018-08-10T00:12:57.957Z,21.46
2018-08-10T00:13:57.950Z,21.53
2018-08-10T00:14:57.957Z,21.47
2018-08-10T00:15:58.199Z,21.5
2018-08-10T00:16:57.691Z,21.44
2018-08-10T00:17:58.200Z,21.52
2018-08-10T00:18:58.201Z,21.46
2018-08-10T00:19:58.192Z,21.37
2018-08-10T00:20:57.934Z,21.38
2018-08-10T00:21:58.191Z,21.34
2018-08-10T00:22:58.187Z,21.37
2018-08-10T00:23:57.928Z,21.38
2018-08-10T00:24:58.179Z,21.34
2018-08-10T00:25:58.177Z,21.37
2018-08-10T00:26:57.921Z,21.31
2018-08-10T00:27:58.171Z,21.34
2018-08-10T00:28:58.173Z,21.42
2018-08-10T00:29:58.174Z,21.4
2018-08-10T00:30:58.168Z,21.35
2018-08-10T00:31:58.162Z,21.21
2018-08-10T00:32:58.165Z,21.32
2018-08-10T00:33:58.156Z,21.29
2018-08-10T00:34:58.158Z,21.27
2018-08-10T00:35:58.157Z,21.31
2018-08-10T00:36:57.648Z,21.25
2018-08-10T00:37:58.155Z,21.22
2018-08-10T00:38:58.150Z,21.19
2018-08-10T00:39:57.892Z,21.19
2018-08-10T00:40:58.146Z,21.21
2018-08-10T00:41:58.142Z,21.22
2018-08-10T00:42:57.887Z,21.22
2018-08-10T00:43:58.141Z,21.22
2018-08-10T00:44:57.882Z,21.25
2018-08-10T00:45:57.880Z,21.19
2018-08-10T00:46:58.129Z,21.07
2018-08-10T00:47:57.878Z,21.17
2018-08-10T00:48:57.873Z,21.12
2018-08-10T00:49:57.872Z,21.16
2018-08-10T00:50:57.869Z,21.17
2018-08-10T00:51:58.119Z,21.16
2018-08-10T00:52:58.114Z,21.17
2018-08-10T00:53:58.112Z,21.17
2018-08-10T00:54:58.109Z,21.13
2018-08-10T00:55:58.110Z,21.14
2018-08-10T00:56:58.108Z,21.12
2018-08-10T00:57:58.102Z,21.1
2018-08-10T00:58:58.103Z,21.09
2018-08-10T00:59:58.102Z,20.99
2018-08-10T01:00:58.099Z,21.06
2018-08-10T01:01:58.100Z,21.03
2018-08-10T01:02:58.127Z,21.03
2018-08-10T01:03:58.096Z,20.97
2018-08-10T01:04:58.089Z,21.01
2018-08-10T01:05:58.094Z,21.01
2018-08-10T01:06:58.086Z,21.01
2018-08-10T01:07:58.079Z,20.97
2018-08-10T01:08:58.076Z,20.95
2018-08-10T01:09:57.877Z,20.94
2018-08-10T01:10:57.821Z,20.94
2018-08-10T01:11:58.076Z,20.89
2018-08-10T01:12:57.820Z,20.87
2018-08-10T01:13:58.084Z,20.82
2018-08-10T01:14:58.063Z,20.84
2018-08-10T01:15:57.815Z,20.88
2018-08-10T01:16:57.808Z,20.87
2018-08-10T01:17:57.805Z,20.77
2018-08-10T01:18:58.060Z,20.82
2018-08-10T01:19:58.052Z,20.8
2018-08-10T01:20:58.050Z,20.82
2018-08-10T01:21:57.796Z,20.8
2018-08-10T01:22:58.045Z,20.72
2018-08-10T01:23:58.061Z,20.7
2018-08-10T01:24:57.837Z,20.73
2018-08-10T01:25:58.289Z,20.7
2018-08-10T01:26:57.784Z,20.69
2018-08-10T01:27:57.780Z,20.66
2018-08-10T01:28:58.056Z,20.69
2018-08-10T01:29:58.026Z,20.61
2018-08-10T01:30:58.022Z,20.72
2018-08-10T01:31:57.771Z,20.66
2018-08-10T01:32:58.022Z,20.69
2018-08-10T01:33:58.026Z,20.64
2018-08-10T01:34:58.014Z,20.61
2018-08-10T01:35:58.010Z,20.64
2018-08-10T01:36:57.756Z,20.66
2018-08-10T01:37:58.006Z,20.61
2018-08-10T01:38:58.006Z,20.52
2018-08-10T01:39:57.999Z,20.58
2018-08-10T01:40:58.000Z,20.57
2018-08-10T01:41:57.743Z,20.54
2018-08-10T01:42:58.006Z,20.51
2018-08-10T01:43:57.738Z,20.52
2018-08-10T01:44:57.996Z,20.55
2018-08-10T01:45:58.019Z,20.5
2018-08-10T01:46:57.990Z,20.51
2018-08-10T01:47:57.988Z,20.5
2018-08-10T01:48:57.978Z,20.54
2018-08-10T01:49:57.725Z,20.42
2018-08-10T01:50:57.972Z,20.47
2018-08-10T01:51:57.974Z,20.43
2018-08-10T01:52:57.981Z,20.33
2018-08-10T01:53:57.964Z,20.35
2018-08-10T01:54:57.458Z,20.42
2018-08-10T01:55:58.006Z,20.41
2018-08-10T01:56:58.214Z,20.39
2018-08-10T01:57:57.953Z,20.39
2018-08-10T01:58:57.951Z,20.35
2018-08-10T01:59:57.950Z,20.33
2018-08-10T02:00:57.695Z,20.39
2018-08-10T02:01:57.943Z,20.38
2018-08-10T02:02:57.942Z,20.26
2018-08-10T02:03:57.686Z,20.28
2018-08-10T02:04:57.938Z,20.29
2018-08-10T02:05:57.680Z,20.31
2018-08-10T02:06:57.717Z,20.23
2018-08-10T02:07:57.930Z,20.26
2018-08-10T02:08:57.925Z,20.24
2018-08-10T02:09:57.919Z,20.32
2018-08-10T02:10:57.669Z,20.17
2018-08-10T02:11:57.663Z,20.29
2018-08-10T02:12:57.913Z,20.18
2018-08-10T02:13:57.909Z,20.24
2018-08-10T02:14:57.909Z,20.14
2018-08-10T02:15:57.912Z,20.24
2018-08-10T02:16:57.902Z,20.23
2018-08-10T02:17:57.896Z,20.11
2018-08-10T02:18:57.899Z,20.13
2018-08-10T02:19:57.893Z,20.21
2018-08-10T02:20:57.940Z,20.17
2018-08-10T02:21:57.887Z,20.2
2018-08-10T02:22:57.882Z,20.17
2018-08-10T02:23:57.881Z,20.11
2018-08-10T02:24:57.886Z,20.11
2018-08-10T02:25:57.623Z,20.1
2018-08-10T02:26:57.877Z,20.17
2018-08-10T02:27:58.130Z,20.17
2018-08-10T02:28:57.868Z,20.13
2018-08-10T02:29:57.863Z,20.14
2018-08-10T02:30:57.611Z,20.1
2018-08-10T02:31:57.861Z,20.05
2018-08-10T02:32:57.860Z,20.05
2018-08-10T02:33:57.852Z,20.03
2018-08-10T02:34:57.600Z,20.06
2018-08-10T02:35:57.594Z,20.23
2018-08-10T02:36:57.849Z,20.14
2018-08-10T02:37:57.841Z,20.11
2018-08-10T02:38:57.840Z,20.18
2018-08-10T02:39:57.836Z,20.17
2018-08-10T02:40:57.852Z,20.13
2018-08-10T02:41:57.580Z,20.14
2018-08-10T02:42:57.834Z,20.17
2018-08-10T02:43:57.828Z,20.18
2018-08-10T02:44:57.827Z,20.14
2018-08-10T02:45:57.575Z,20.18
2018-08-10T02:46:57.568Z,20.18
2018-08-10T02:47:57.826Z,20.23
2018-08-10T02:48:57.812Z,20.26
2018-08-10T02:49:57.559Z,20.26
2018-08-10T02:50:57.807Z,20.31
2018-08-10T02:51:57.554Z,20.28
2018-08-10T02:52:57.547Z,20.21
2018-08-10T02:53:57.803Z,20.17
2018-08-10T02:54:57.795Z,20.21
2018-08-10T02:55:57.794Z,20.21
2018-08-10T02:56:57.534Z,20.21
2018-08-10T02:57:57.785Z,20.14
2018-08-10T02:58:57.788Z,20.18
2018-08-10T02:59:57.797Z,20.05
2018-08-10T03:00:57.524Z,20.14
2018-08-10T03:01:57.780Z,20.23
2018-08-10T03:02:57.774Z,20.06
2018-08-10T03:03:57.515Z,20.05
2018-08-10T03:04:57.518Z,20.08
2018-08-10T03:05:57.760Z,20.1
2018-08-10T03:06:57.517Z,20.1
2018-08-10T03:07:57.511Z,20.08
2018-08-10T03:08:57.502Z,20.06
2018-08-10T03:09:57.754Z,20.17
2018-08-10T03:10:57.503Z,20.16
2018-08-10T03:11:57.745Z,20.14
2018-08-10T03:12:57.494Z,20.11
2018-08-10T03:13:57.489Z,20.14
2018-08-10T03:14:57.485Z,20.08
2018-08-10T03:15:57.740Z,20.13
2018-08-10T03:16:57.478Z,20.23
2018-08-10T03:17:57.732Z,20.28
2018-08-10T03:18:57.736Z,20.17
2018-08-10T03:19:57.718Z,20.24
2018-08-10T03:20:57.724Z,20.24
2018-08-10T03:21:57.789Z,20.23
2018-08-10T03:22:57.722Z,20.31
2018-08-10T03:23:57.712Z,20.29
2018-08-10T03:24:57.708Z,20.32
2018-08-10T03:25:57.707Z,20.36
2018-08-10T03:26:57.197Z,20.48
2018-08-10T03:27:57.445Z,20.38
2018-08-10T03:28:57.700Z,20.39
2018-08-10T03:29:57.694Z,20.51
2018-08-10T03:30:57.691Z,20.5
2018-08-10T03:31:57.692Z,20.55
2018-08-10T03:32:57.684Z,20.54
2018-08-10T03:33:57.681Z,20.64
2018-08-10T03:34:57.424Z,20.66
2018-08-10T03:35:57.674Z,20.58
2018-08-10T03:36:57.670Z,20.66
2018-08-10T03:37:57.416Z,20.73
2018-08-10T03:38:57.666Z,20.72
2018-08-10T03:39:57.666Z,20.73
2018-08-10T03:40:57.661Z,20.74
2018-08-10T03:41:57.405Z,20.84
2018-08-10T03:42:57.657Z,20.85
2018-08-10T03:43:57.399Z,20.84
2018-08-10T03:44:57.653Z,20.85
2018-08-10T03:45:57.650Z,20.87
2018-08-10T03:46:57.642Z,20.92
2018-08-10T03:47:57.640Z,20.92
2018-08-10T03:48:57.636Z,20.91
2018-08-10T03:49:57.935Z,21.01
2018-08-10T03:50:57.634Z,20.98
2018-08-10T03:51:57.380Z,20.99
2018-08-10T03:52:57.375Z,21.09
2018-08-10T03:53:57.625Z,21.1
2018-08-10T03:54:57.371Z,21.06
2018-08-10T03:55:57.619Z,21.19
2018-08-10T03:56:57.617Z,21.12
2018-08-10T03:57:57.617Z,21.1
2018-08-10T03:58:57.362Z,21.16
2018-08-10T03:59:57.608Z,21.1
2018-08-10T04:00:57.617Z,21.14
2018-08-10T04:01:57.853Z,21.16
2018-08-10T04:02:57.601Z,21.25
2018-08-10T04:03:57.603Z,21.22
2018-08-10T04:04:57.595Z,21.21
2018-08-10T04:05:57.342Z,21.27
2018-08-10T04:06:57.589Z,21.29
2018-08-10T04:07:57.598Z,21.22
2018-08-10T04:08:57.613Z,21.27
2018-08-10T04:09:57.587Z,21.38
2018-08-10T04:10:57.585Z,21.29
2018-08-10T04:11:57.588Z,21.29
2018-08-10T04:12:57.325Z,21.38
2018-08-10T04:13:57.576Z,21.38
2018-08-10T04:14:57.573Z,21.4
2018-08-10T04:15:57.322Z,21.42
2018-08-10T04:16:57.565Z,21.42
2018-08-10T04:17:57.314Z,21.5
2018-08-10T04:18:57.310Z,21.58
2018-08-10T04:19:57.572Z,21.52
2018-08-10T04:20:57.559Z,21.53
2018-08-10T04:21:57.302Z,21.49
2018-08-10T04:22:57.560Z,21.61
2018-08-10T04:23:57.550Z,21.61
2018-08-10T04:24:57.547Z,21.61
2018-08-10T04:25:57.544Z,21.65
2018-08-10T04:26:57.544Z,21.72
2018-08-10T04:27:57.288Z,21.69
2018-08-10T04:28:57.540Z,21.71
2018-08-10T04:29:57.543Z,21.75
2018-08-10T04:30:57.535Z,21.82
2018-08-10T04:31:57.283Z,21.83
2018-08-10T04:32:57.786Z,21.84
2018-08-10T04:33:57.533Z,21.79
2018-08-10T04:34:57.526Z,21.91
2018-08-10T04:35:57.282Z,21.88
2018-08-10T04:36:57.273Z,21.94
2018-08-10T04:37:57.518Z,21.92
2018-08-10T04:38:57.520Z,21.98
2018-08-10T04:39:57.513Z,22
2018-08-10T04:40:57.514Z,22.05
2018-08-10T04:41:57.512Z,22.05
2018-08-10T04:42:57.509Z,22.06
2018-08-10T04:43:57.506Z,22.14
2018-08-10T04:44:57.503Z,22.07
2018-08-10T04:45:57.507Z,22.03
2018-08-10T04:46:57.249Z,22.12
2018-08-10T04:47:57.496Z,22.1
2018-08-10T04:48:57.244Z,22.14
2018-08-10T04:49:57.493Z,22.15
2018-08-10T04:50:57.494Z,22.21
2018-08-10T04:51:57.238Z,22.12
2018-08-10T04:52:57.237Z,22.2
2018-08-10T04:53:57.239Z,22.15
2018-08-10T04:54:57.528Z,22.25
2018-08-10T04:55:57.482Z,22.21
2018-08-10T04:56:57.485Z,22.15
2018-08-10T04:57:57.228Z,22.2
2018-08-10T04:58:57.476Z,22.24
2018-08-10T04:59:57.479Z,22.22
2018-08-10T05:00:57.473Z,22.22
2018-08-10T05:01:57.471Z,22.22
2018-08-10T05:02:57.217Z,22.22
2018-08-10T05:03:57.474Z,22.24
2018-08-10T05:04:57.219Z,22.25
2018-08-10T05:05:57.463Z,22.31
2018-08-10T05:06:57.209Z,22.28
2018-08-10T05:07:57.459Z,22.21
2018-08-10T05:08:57.462Z,22.21
2018-08-10T05:09:57.759Z,22.25
2018-08-10T05:10:57.458Z,22.22
2018-08-10T05:11:57.452Z,22.25
2018-08-10T05:12:57.202Z,22.37
2018-08-10T05:13:56.943Z,22.4
2018-08-10T05:14:57.192Z,22.28
2018-08-10T05:15:57.194Z,22.36
2018-08-10T05:16:57.443Z,22.3
2018-08-10T05:17:57.441Z,22.35
2018-08-10T05:18:57.443Z,22.35
2018-08-10T05:19:57.444Z,22.37
2018-08-10T05:20:57.183Z,22.35
2018-08-10T05:21:57.184Z,22.42
2018-08-10T05:22:57.178Z,22.39
2018-08-10T05:23:57.433Z,22.35
2018-08-10T05:24:57.427Z,22.45
2018-08-10T05:25:57.643Z,22.46
2018-08-10T05:26:57.178Z,22.47
2018-08-10T05:27:57.171Z,22.52
2018-08-10T05:28:57.166Z,22.55
2018-08-10T05:29:57.418Z,22.49
2018-08-10T05:30:57.415Z,22.49
2018-08-10T05:31:57.160Z,22.57
2018-08-10T05:32:57.412Z,22.58
2018-08-10T05:33:57.158Z,22.61
2018-08-10T05:34:58.026Z,22.64
2018-08-10T05:35:57.412Z,22.6
2018-08-10T05:36:57.152Z,22.67
2018-08-10T05:37:57.410Z,22.77
2018-08-10T05:38:57.405Z,22.67
2018-08-10T05:39:57.406Z,22.77
2018-08-10T05:40:57.147Z,22.79
2018-08-10T05:41:57.407Z,22.85
2018-08-10T05:42:57.394Z,22.91
2018-08-10T05:43:57.576Z,22.91
2018-08-10T05:44:57.394Z,23.01
2018-08-10T05:45:57.394Z,23
2018-08-10T05:46:57.339Z,22.91
2018-08-10T05:47:57.502Z,22.94
2018-08-10T05:48:57.399Z,23
2018-08-10T05:49:57.506Z,23.05
2018-08-10T05:50:57.523Z,23.2
2018-08-10T05:51:57.133Z,23.23
2018-08-10T05:52:57.383Z,23.19
2018-08-10T05:53:57.380Z,23.19
2018-08-10T05:54:57.126Z,23.31
2018-08-10T05:55:57.376Z,23.38
2018-08-10T05:56:57.123Z,23.28
2018-08-10T05:57:57.376Z,23.39
2018-08-10T05:58:57.378Z,23.39
2018-08-10T05:59:57.127Z,23.48
2018-08-10T06:00:57.378Z,23.46
2018-08-10T06:01:57.123Z,23.54
2018-08-10T06:02:57.127Z,23.48
2018-08-10T06:03:58.285Z,23.68
2018-08-10T06:04:57.372Z,23.58
2018-08-10T06:05:57.622Z,23.69
2018-08-10T06:06:57.113Z,23.63
2018-08-10T06:07:57.119Z,23.65
2018-08-10T06:08:57.366Z,23.69
2018-08-10T06:09:57.360Z,23.65
2018-08-10T06:10:57.367Z,23.72
2018-08-10T06:11:57.107Z,23.68
2018-08-10T06:12:57.362Z,23.66
2018-08-10T06:13:57.105Z,23.72
2018-08-10T06:14:57.103Z,23.69
2018-08-10T06:15:57.356Z,23.78
2018-08-10T06:16:57.108Z,23.83
2018-08-10T06:17:57.354Z,23.79
2018-08-10T06:18:57.353Z,23.83
2018-08-10T06:19:57.582Z,23.8
2018-08-10T06:20:57.105Z,23.79
2018-08-10T06:21:57.102Z,23.87
2018-08-10T06:22:57.657Z,23.88
2018-08-10T06:23:57.357Z,23.94
2018-08-10T06:24:57.185Z,23.97
2018-08-10T06:25:57.345Z,23.93
2018-08-10T06:26:57.349Z,24
2018-08-10T06:27:57.730Z,23.97
2018-08-10T06:28:57.350Z,23.88
2018-08-10T06:29:57.374Z,23.79
2018-08-10T06:30:57.344Z,23.79
2018-08-10T06:31:57.350Z,23.8
2018-08-10T06:32:57.347Z,23.85
2018-08-10T06:33:57.460Z,23.78
2018-08-10T06:34:57.342Z,23.8
2018-08-10T06:35:57.093Z,23.75
2018-08-10T06:36:57.345Z,23.65
2018-08-10T06:37:57.338Z,23.7
2018-08-10T06:38:57.341Z,23.66
2018-08-10T06:39:57.622Z,23.6
2018-08-10T06:40:57.349Z,23.55
2018-08-10T06:41:57.085Z,23.55
2018-08-10T06:42:57.085Z,23.47
2018-08-10T06:43:57.335Z,23.51
2018-08-10T06:44:57.860Z,23.43
2018-08-10T06:45:57.080Z,23.4
2018-08-10T06:46:57.334Z,23.43
2018-08-10T06:47:57.334Z,23.42
2018-08-10T06:48:57.077Z,23.33
2018-08-10T06:49:57.333Z,23.31
2018-08-10T06:50:57.329Z,23.25
2018-08-10T06:51:57.329Z,23.23
2018-08-10T06:52:57.084Z,23.22
2018-08-10T06:53:57.329Z,23.15
2018-08-10T06:54:57.321Z,23.19
2018-08-10T06:55:57.946Z,23.16
2018-08-10T06:56:57.069Z,23.22
2018-08-10T06:57:57.325Z,23.12
2018-08-10T06:58:57.366Z,23.04
2018-08-10T06:59:57.318Z,23.07
2018-08-10T07:00:57.204Z,22.95
2018-08-10T07:01:57.327Z,22.92
2018-08-10T07:02:57.315Z,22.92
2018-08-10T07:03:57.315Z,22.9
2018-08-10T07:04:57.315Z,22.92
2018-08-10T07:05:57.310Z,22.88
2018-08-10T07:06:57.309Z,22.88
2018-08-10T07:07:57.715Z,22.83
2018-08-10T07:08:57.053Z,22.88
2018-08-10T07:09:57.306Z,22.88
2018-08-10T07:10:57.328Z,22.88
2018-08-10T07:11:57.307Z,22.9
2018-08-10T07:12:57.056Z,22.88
2018-08-10T07:13:57.301Z,22.92
2018-08-10T07:14:57.301Z,22.85
2018-08-10T07:15:57.297Z,22.9
2018-08-10T07:16:57.295Z,22.83
2018-08-10T07:17:57.294Z,22.94
2018-08-10T07:18:57.296Z,22.92
2018-08-10T07:19:57.307Z,22.98
2018-08-10T07:20:57.290Z,22.94
2018-08-10T07:21:57.296Z,23.1
2018-08-10T07:22:56.785Z,23.17
2018-08-10T07:23:57.292Z,23.33
2018-08-10T07:24:57.286Z,23.48
2018-08-10T07:25:57.286Z,23.61
2018-08-10T07:26:57.291Z,23.75
2018-08-10T07:27:57.281Z,23.83
2018-08-10T07:28:57.304Z,23.95
2018-08-10T07:29:57.289Z,24.02
2018-08-10T07:30:57.288Z,24.06
2018-08-10T07:31:57.295Z,24.06
2018-08-10T07:32:57.285Z,24.12
2018-08-10T07:33:57.284Z,24.05
2018-08-10T07:34:57.280Z,24.12
2018-08-10T07:35:57.285Z,24.09
2018-08-10T07:36:57.028Z,24.1
2018-08-10T07:37:57.031Z,24.1
2018-08-10T07:38:57.281Z,24.1
2018-08-10T07:39:57.277Z,24.06
2018-08-10T07:40:57.284Z,24.09
2018-08-10T07:41:57.027Z,23.97
2018-08-10T07:42:57.284Z,23.78
2018-08-10T07:43:57.026Z,23.69
2018-08-10T07:44:57.286Z,23.8
2018-08-10T07:45:57.288Z,23.69
2018-08-10T07:46:57.031Z,23.65
2018-08-10T07:47:57.026Z,23.78
2018-08-10T07:48:57.276Z,23.83
2018-08-10T07:49:57.278Z,23.79
2018-08-10T07:50:57.277Z,23.87
2018-08-10T07:51:57.284Z,23.87
2018-08-10T07:52:57.278Z,23.98
2018-08-10T07:53:57.277Z,23.93
2018-08-10T07:54:57.277Z,23.94
2018-08-10T07:55:57.281Z,24.05
2018-08-10T07:56:57.277Z,24.03
2018-08-10T07:57:57.284Z,23.98
2018-08-10T07:58:57.450Z,23.88
2018-08-10T07:59:57.285Z,23.94
2018-08-10T08:00:57.278Z,23.9
2018-08-10T08:01:57.289Z,23.91
2018-08-10T08:02:57.278Z,23.98
2018-08-10T08:03:57.280Z,24.05
2018-08-10T08:04:57.276Z,24.09
2018-08-10T08:05:57.279Z,24.09
2018-08-10T08:06:57.099Z,24.12
2018-08-10T08:07:57.352Z,24.12
2018-08-10T08:08:57.325Z,24.13
2018-08-10T08:09:57.277Z,24.2
2018-08-10T08:10:57.531Z,24.22
2018-08-10T08:11:57.027Z,24.15
2018-08-10T08:12:57.284Z,24.09
2018-08-10T08:13:57.281Z,24.16
2018-08-10T08:14:57.025Z,24.09
2018-08-10T08:15:57.280Z,24.09
2018-08-10T08:16:57.033Z,24.12
2018-08-10T08:17:57.372Z,24.12
2018-08-10T08:18:57.290Z,24.27
2018-08-10T08:19:57.459Z,24.35
2018-08-10T08:20:57.281Z,24.39
2018-08-10T08:21:57.026Z,24.5
2018-08-10T08:22:57.280Z,24.62
2018-08-10T08:23:57.280Z,24.68
2018-08-10T08:24:57.277Z,24.73
2018-08-10T08:25:57.285Z,24.91
2018-08-10T08:26:57.037Z,24.99
2018-08-10T08:27:57.285Z,25.08
2018-08-10T08:28:57.300Z,25.13
2018-08-10T08:29:57.280Z,25.21
2018-08-10T08:30:57.031Z,25.28
2018-08-10T08:31:57.033Z,25.43
2018-08-10T08:32:57.034Z,25.52
2018-08-10T08:33:57.283Z,25.64
2018-08-10T08:34:57.940Z,25.75
2018-08-10T08:35:57.040Z,25.92
2018-08-10T08:36:57.166Z,25.99
2018-08-10T08:37:57.294Z,26.21
2018-08-10T08:38:57.297Z,26.29
2018-08-10T08:39:57.299Z,26.4
2018-08-10T08:40:57.118Z,26.51
2018-08-10T08:41:57.298Z,26.58
2018-08-10T08:42:57.301Z,26.55
2018-08-10T08:43:57.308Z,26.65
2018-08-10T08:44:57.052Z,26.62
2018-08-10T08:45:58.511Z,26.66
2018-08-10T08:46:57.313Z,26.65
2018-08-10T08:48:57.064Z,26.97
2018-08-10T08:49:57.368Z,27.03
2018-08-10T08:50:57.070Z,27.03
2018-08-10T08:51:57.077Z,27.03
2018-08-10T08:52:57.329Z,27.27
2018-08-10T08:53:56.890Z,27.31
2018-08-10T08:54:57.080Z,27.21
2018-08-10T08:55:57.335Z,27.19
2018-08-10T08:56:57.085Z,27.14
2018-08-10T08:57:57.092Z,27.17
2018-08-10T08:58:57.351Z,27.24
2018-08-10T08:59:57.390Z,27.29
2018-08-10T09:00:57.354Z,27.46
2018-08-10T09:01:57.103Z,27.62
2018-08-10T09:02:57.104Z,27.67
2018-08-10T09:03:57.368Z,27.7
2018-08-10T09:04:57.112Z,27.74
2018-08-10T09:05:57.369Z,27.82
2018-08-10T09:06:57.119Z,28.02
2018-08-10T09:07:57.130Z,28.09
2018-08-10T09:08:57.437Z,28.09
2018-08-10T09:09:57.451Z,28.15
2018-08-10T09:10:57.389Z,28.12
2018-08-10T09:11:57.394Z,28.29
2018-08-10T09:12:57.398Z,28.31
2018-08-10T09:13:57.396Z,28.29
2018-08-10T09:14:57.150Z,28.24
2018-08-10T09:15:57.153Z,28.27
2018-08-10T09:16:57.494Z,28.25
2018-08-10T09:17:57.159Z,28.25
2018-08-10T09:18:57.415Z,28.22
2018-08-10T09:19:57.167Z,28.18
2018-08-10T09:20:57.431Z,28.18
2018-08-10T09:21:57.180Z,28.17
2018-08-10T09:22:57.177Z,28.04
2018-08-10T09:23:57.187Z,28.03
2018-08-10T09:24:57.440Z,27.93
2018-08-10T09:25:57.440Z,27.72
2018-08-10T09:26:57.292Z,27.75
2018-08-10T09:27:57.459Z,27.74
2018-08-10T09:28:57.453Z,27.6
2018-08-10T09:29:57.203Z,27.62
2018-08-10T09:30:57.460Z,27.59
2018-08-10T09:31:57.463Z,27.57
2018-08-10T09:32:57.222Z,27.62
2018-08-10T09:33:57.468Z,27.65
2018-08-10T09:34:57.471Z,27.65
2018-08-10T09:35:57.483Z,27.59
2018-08-10T09:36:56.974Z,27.55
2018-08-10T09:37:57.480Z,27.57
2018-08-10T09:38:57.489Z,27.63
2018-08-10T09:39:57.487Z,27.72
2018-08-10T09:40:57.243Z,27.72
2018-08-10T09:41:56.990Z,27.75
2018-08-10T09:42:57.497Z,27.85
2018-08-10T09:43:57.247Z,27.82
2018-08-10T09:44:57.517Z,27.84
2018-08-10T09:45:57.513Z,27.69
2018-08-10T09:46:57.262Z,27.67
2018-08-10T09:47:57.271Z,27.82
2018-08-10T09:48:57.267Z,27.9
2018-08-10T09:49:57.271Z,28.03
2018-08-10T09:50:57.524Z,28
2018-08-10T09:51:57.845Z,28.06
2018-08-10T09:52:57.529Z,28.14
2018-08-10T09:53:57.280Z,28.06
2018-08-10T09:54:57.341Z,28.02
2018-08-10T09:55:57.545Z,28.12
2018-08-10T09:56:57.293Z,28.04
2018-08-10T09:57:57.612Z,28.14
2018-08-10T09:58:57.299Z,28.12
2018-08-10T09:59:58.009Z,28.24
2018-08-10T10:00:57.561Z,28.31
2018-08-10T10:01:57.561Z,28.54
2018-08-10T10:02:57.565Z,28.52
2018-08-10T10:03:57.567Z,28.64
2018-08-10T10:04:57.571Z,28.7
2018-08-10T10:05:57.577Z,28.8
2018-08-10T10:06:57.581Z,28.89
2018-08-10T10:07:57.614Z,28.92
2018-08-10T10:08:57.659Z,28.95
2018-08-10T10:09:57.594Z,29.06
2018-08-10T10:10:57.595Z,29.11
2018-08-10T10:11:57.350Z,29.23
2018-08-10T10:12:57.609Z,29.27
2018-08-10T10:13:57.660Z,29.28
2018-08-10T10:14:57.613Z,29.3
2018-08-10T10:15:57.619Z,29.37
2018-08-10T10:16:57.628Z,29.39
2018-08-10T10:17:57.121Z,29.43
2018-08-10T10:18:57.629Z,29.45
2018-08-10T10:19:57.383Z,29.53
2018-08-10T10:20:57.774Z,29.6
2018-08-10T10:21:57.395Z,29.7
2018-08-10T10:22:57.649Z,29.7
2018-08-10T10:23:57.404Z,29.67
2018-08-10T10:24:57.405Z,29.71
2018-08-10T10:25:57.411Z,29.83
2018-08-10T10:26:57.415Z,29.8
2018-08-10T10:27:57.168Z,29.92
2018-08-10T10:28:57.685Z,30.16
2018-08-10T10:29:57.438Z,30.16
2018-08-10T10:30:57.691Z,30.26
2018-08-10T10:31:57.441Z,30.39
2018-08-10T10:32:57.709Z,30.37
2018-08-10T10:33:57.455Z,30.32
2018-08-10T10:34:57.710Z,30.26
2018-08-10T10:35:57.716Z,30.22
2018-08-10T10:36:57.717Z,30.34
2018-08-10T10:37:57.726Z,30.38
2018-08-10T10:38:57.728Z,30.29
2018-08-10T10:39:57.489Z,30.16
2018-08-10T10:40:57.741Z,30.1
2018-08-10T10:41:57.753Z,30.13
2018-08-10T10:42:57.750Z,30.04
2018-08-10T10:43:57.758Z,29.98
2018-08-10T10:44:57.509Z,29.9
2018-08-10T10:45:57.765Z,30.05
2018-08-10T10:46:57.771Z,30.1
2018-08-10T10:47:57.781Z,30.07
2018-08-10T10:48:57.782Z,30.15
2018-08-10T10:49:57.536Z,30.16
2018-08-10T10:50:57.710Z,30.32
2018-08-10T10:51:57.547Z,30.38
2018-08-10T10:52:57.806Z,30.43
2018-08-10T10:53:57.810Z,30.49
2018-08-10T10:54:57.564Z,30.49
2018-08-10T10:55:57.568Z,30.47
2018-08-10T10:56:58.052Z,30.53
2018-08-10T10:57:57.836Z,30.64
2018-08-10T10:59:12.762Z,30.57
2018-08-10T10:59:57.852Z,30.49
2018-08-10T11:00:57.855Z,30.46
2018-08-10T11:01:57.853Z,30.45
2018-08-10T11:02:57.863Z,30.34
2018-08-10T11:03:57.864Z,30.37
2018-08-10T11:04:57.870Z,30.26
2018-08-10T11:05:57.624Z,30.24
2018-08-10T11:06:57.633Z,30.24
2018-08-10T11:07:57.889Z,30.24
2018-08-10T11:08:57.892Z,30.22
2018-08-10T11:09:57.906Z,30.24
2018-08-10T11:10:57.906Z,30.2
2018-08-10T11:11:57.655Z,30.07
2018-08-10T11:12:57.663Z,30.01
2018-08-10T11:13:57.921Z,30.05
2018-08-10T11:14:57.927Z,30.15
2018-08-10T11:15:57.679Z,30.01
2018-08-10T11:16:57.685Z,29.87
2018-08-10T11:17:58.053Z,29.92
2018-08-10T11:18:57.700Z,29.8
2018-08-10T11:19:57.956Z,29.97
2018-08-10T11:20:57.959Z,30.05
2018-08-10T11:21:57.715Z,30.01
2018-08-10T11:22:57.975Z,30.15
2018-08-10T11:23:58.083Z,30.26
2018-08-10T11:24:57.982Z,30.16
2018-08-10T11:25:57.857Z,30.1
2018-08-10T11:26:57.995Z,30.05
2018-08-10T11:27:57.759Z,30.13
2018-08-10T11:28:58.000Z,30.05
2018-08-10T11:29:57.758Z,30.13
2018-08-10T11:30:58.015Z,30.05
2018-08-10T11:31:58.183Z,30.11
2018-08-10T11:32:58.026Z,30.04
2018-08-10T11:33:58.033Z,30.05
2018-08-10T11:34:57.786Z,30.1
2018-08-10T11:35:58.043Z,29.95
2018-08-10T11:36:57.794Z,30
2018-08-10T11:37:58.051Z,30.04
2018-08-10T11:38:58.057Z,30.01
2018-08-10T11:39:57.813Z,29.98
2018-08-10T11:40:58.107Z,30.08
2018-08-10T11:41:57.821Z,30.11
2018-08-10T11:42:57.833Z,30.02
2018-08-10T11:43:57.830Z,29.85
2018-08-10T11:44:58.221Z,29.74
2018-08-10T11:45:58.093Z,29.8
2018-08-10T11:46:58.098Z,29.76
2018-08-10T11:47:58.109Z,29.65
2018-08-10T11:48:57.859Z,29.65
2018-08-10T11:49:58.225Z,29.57
2018-08-10T11:50:57.869Z,29.49
2018-08-10T11:51:58.134Z,29.42
2018-08-10T11:52:58.132Z,29.46
2018-08-10T11:53:57.886Z,29.46
2018-08-10T11:54:58.142Z,29.39
2018-08-10T11:55:58.143Z,29.3
2018-08-10T11:56:57.898Z,29.24
2018-08-10T11:57:58.162Z,29.15
2018-08-10T11:58:58.162Z,29.12
2018-08-10T11:59:58.004Z,28.9
2018-08-10T12:00:58.177Z,28.92
2018-08-10T12:01:58.466Z,28.78
2018-08-10T12:02:58.182Z,28.59
2018-08-10T12:03:58.185Z,28.52
2018-08-10T12:04:58.186Z,28.62
2018-08-10T12:05:58.500Z,28.55
2018-08-10T12:06:57.943Z,28.39
2018-08-10T12:07:57.990Z,28.34
2018-08-10T12:08:58.205Z,28.27
2018-08-10T12:09:58.209Z,28.31
2018-08-10T12:10:58.212Z,28.33
2018-08-10T12:11:58.219Z,28.37
2018-08-10T12:12:58.495Z,28.09
2018-08-10T12:13:58.223Z,28.02
2018-08-10T12:14:58.227Z,27.96
2018-08-10T12:15:57.978Z,27.93
2018-08-10T12:16:58.233Z,27.87
2018-08-10T12:17:57.734Z,27.75
2018-08-10T12:18:58.000Z,27.77
2018-08-10T12:19:58.245Z,27.77
2018-08-10T12:20:58.253Z,27.84
2018-08-10T12:21:58.250Z,27.75
2018-08-10T12:22:58.006Z,27.75
2018-08-10T12:23:58.257Z,27.74
2018-08-10T12:24:58.013Z,27.7
2018-08-10T12:25:58.275Z,27.84
2018-08-10T12:26:58.016Z,27.92
2018-08-10T12:27:58.269Z,28.07
2018-08-10T12:28:58.275Z,28.04
2018-08-10T12:29:58.286Z,28.07
2018-08-10T12:30:58.286Z,28.11
2018-08-10T12:31:58.291Z,28.07
2018-08-10T12:32:58.036Z,28.06
2018-08-10T12:33:58.289Z,28.03
2018-08-10T12:34:58.295Z,28.02
2018-08-10T12:35:58.466Z,28.09
2018-08-10T12:36:58.300Z,28.06
2018-08-10T12:37:58.706Z,28.09
2018-08-10T12:38:58.305Z,28.14
2018-08-10T12:39:58.308Z,28.15
2018-08-10T12:40:58.312Z,28.27
2018-08-10T12:41:58.073Z,28.27
2018-08-10T12:42:58.321Z,28.3
2018-08-10T12:43:58.323Z,28.27
2018-08-10T12:44:58.076Z,28.33
2018-08-10T12:45:58.082Z,28.31
2018-08-10T12:46:58.335Z,28.41
2018-08-10T12:47:58.085Z,28.4
2018-08-10T12:48:58.340Z,28.37
2018-08-10T12:49:58.342Z,28.4
2018-08-10T12:50:58.347Z,28.39
2018-08-10T12:51:58.349Z,28.3
2018-08-10T12:52:58.108Z,28.36
2018-08-10T12:53:58.106Z,28.33
2018-08-10T12:54:58.359Z,28.36
2018-08-10T12:55:58.364Z,28.37
2018-08-10T12:56:58.167Z,28.31